Time;durP1;ratioP1;P1;durP2;ratioP2;P2;SDS_P1;SDS_P2;PMS_P1;PMS_P2;Temp;Humidity;BMP_temperature;BMP_pressure;BME280_temperature;BME280_humidity;BME280_pressure;Samples;Min_cycle;Max_cycle;Signal;HPM_P1;HPM_P2
2022/06/12 00:01:30;;;;;;;9.15;2.22;;;15.10;67.20;;;;;;5053360;28;20045;-89
2022/06/12 00:03:57;;;;;;;8.23;1.92;;;15.00;67.20;;;;;;5053221;28;20053;-89
2022/06/12 00:06:24;;;;;;;7.38;2.08;;;15.00;67.30;;;;;;5055056;28;20049;-88
2022/06/12 00:08:51;;;;;;;8.63;1.90;;;14.90;67.30;;;;;;5051228;28;20468;-88
2022/06/12 00:11:24;;;;;;;7.80;1.98;;;14.90;67.40;;;;;;5052010;28;20130;-88
2022/06/12 00:13:55;;;;;;;7.57;1.85;;;14.90;67.50;;;;;;5052976;28;20413;-88
2022/06/12 00:16:22;;;;;;;9.82;1.63;;;14.90;67.50;;;;;;5053678;28;20045;-89
2022/06/12 00:18:50;;;;;;;5.85;1.52;;;14.80;67.60;;;;;;5054039;28;20049;-89
2022/06/12 00:21:19;;;;;;;8.45;1.67;;;14.80;67.60;;;;;;5053735;28;20056;-89
2022/06/12 00:23:51;;;;;;;5.85;1.52;;;14.70;67.70;;;;;;5051749;28;20468;-88
2022/06/12 00:26:25;;;;;;;8.68;2.08;;;14.70;67.70;;;;;;5051495;28;20071;-88
2022/06/12 00:29:01;;;;;;;6.32;1.92;;;14.70;67.80;;;;;;5051699;28;20040;-88
2022/06/12 00:31:30;;;;;;;7.32;1.83;;;14.60;67.80;;;;;;5053907;28;20045;-88
2022/06/12 00:33:57;;;;;;;7.30;2.13;;;14.60;67.90;;;;;;5051617;28;20456;-88
2022/06/12 00:36:24;;;;;;;8.57;1.85;;;14.50;67.90;;;;;;5053404;28;20064;-89
2022/06/12 00:38:51;;;;;;;6.97;1.80;;;14.50;68.00;;;;;;5051122;28;20071;-87
2022/06/12 00:41:19;;;;;;;6.45;1.75;;;14.50;68.10;;;;;;5049847;28;20053;-88
2022/06/12 00:43:46;;;;;;;11.68;2.20;;;14.40;68.10;;;;;;5049917;28;20037;-88
2022/06/12 00:46:41;;;;;;;7.75;2.10;;;14.40;68.20;;;;;;5052129;28;20110;-89
2022/06/12 00:49:17;;;;;;;8.55;2.22;;;14.40;68.30;;;;;;5036932;28;20049;-88
2022/06/12 00:51:48;;;;;;;8.38;2.17;;;14.40;68.40;;;;;;5053860;28;20048;-87
2022/06/12 00:54:16;;;;;;;7.55;1.92;;;14.40;68.50;;;;;;5052977;28;20049;-88
2022/06/12 00:56:49;;;;;;;8.35;2.47;;;14.30;68.60;;;;;;5050702;28;20574;-88
2022/06/12 00:59:33;;;;;;;7.53;2.00;;;14.30;68.60;;;;;;5053175;28;20063;-90
2022/06/12 01:02:01;;;;;;;9.05;2.15;;;14.30;68.70;;;;;;5051926;28;20099;-89
2022/06/12 01:07:19;;;;;;;7.97;1.98;;;14.20;68.90;;;;;;5050455;28;20046;-90
2022/06/12 01:09:50;;;;;;;8.32;2.30;;;14.20;69.00;;;;;;5052663;28;20044;-90
2022/06/12 01:12:21;;;;;;;10.38;2.58;;;14.20;69.10;;;;;;5052213;28;20052;-90
2022/06/12 01:14:58;;;;;;;8.75;1.85;;;14.10;69.20;;;;;;5048897;28;20114;-92
2022/06/12 01:17:27;;;;;;;7.65;2.22;;;14.10;69.30;;;;;;5050675;28;20505;-91
2022/06/12 01:20:01;;;;;;;7.40;1.73;;;14.10;69.50;;;;;;5051752;28;20052;-90
2022/06/12 01:22:34;;;;;;;10.40;2.58;;;14.10;69.50;;;;;;5045211;28;20505;-90
2022/06/12 01:25:42;;;;;;;9.35;2.38;;;14.10;69.60;;;;;;5050157;28;20045;-91
2022/06/12 01:28:34;;;;;;;13.05;2.33;;;14.00;69.80;;;;;;4995211;28;20054;-90
2022/06/12 01:31:12;;;;;;;10.20;2.17;;;14.00;69.80;;;;;;5011833;28;20457;-90
2022/06/12 01:33:45;;;;;;;9.82;2.38;;;14.00;69.90;;;;;;4996170;28;20058;-89
2022/06/12 01:36:20;;;;;;;10.70;2.40;;;13.90;70.00;;;;;;4994737;28;20066;-90
2022/06/12 01:39:10;;;;;;;10.40;2.30;;;13.90;70.10;;;;;;4981833;28;20050;-90
2022/06/12 01:41:58;;;;;;;8.43;2.17;;;13.90;70.20;;;;;;4992607;28;20062;-89
2022/06/12 01:44:27;;;;;;;8.90;2.05;;;13.90;70.30;;;;;;4984776;28;20506;-92
2022/06/12 01:47:00;;;;;;;7.15;2.63;;;13.90;70.40;;;;;;4977051;28;20140;-90
2022/06/12 01:50:08;;;;;;;11.05;2.47;;;13.90;70.40;;;;;;4998696;28;20066;-90
2022/06/12 01:52:52;;;;;;;8.55;2.60;;;13.90;70.50;;;;;;5011728;28;20049;-90
2022/06/12 01:55:44;;;;;;;9.88;2.38;;;13.90;70.60;;;;;;4995593;28;20046;-89
2022/06/12 01:58:20;;;;;;;8.13;2.20;;;13.90;70.60;;;;;;4996867;28;20058;-90
2022/06/12 02:00:54;;;;;;;9.48;2.30;;;13.80;70.60;;;;;;4995206;28;20408;-89
2022/06/12 02:03:55;;;;;;;9.77;2.38;;;13.80;70.70;;;;;;5012799;28;20045;-90
2022/06/12 02:06:56;;;;;;;8.75;2.58;;;13.80;70.60;;;;;;4991283;28;20519;-89
2022/06/12 02:09:31;;;;;;;11.82;2.60;;;13.70;70.60;;;;;;4986325;28;20478;-89
2022/06/12 02:15:27;;;;;;;6.82;2.15;;;13.70;70.60;;;;;;4991629;28;20054;-89
2022/06/12 02:18:04;;;;;;;9.00;2.60;;;13.70;70.60;;;;;;4933219;29;20091;-89
2022/06/12 02:20:35;;;;;;;6.57;2.13;;;13.60;70.50;;;;;;4933145;29;20062;-90
2022/06/12 02:23:11;;;;;;;7.40;2.25;;;13.60;70.40;;;;;;4933864;28;20102;-88
2022/06/12 02:25:42;;;;;;;8.23;2.30;;;13.60;70.40;;;;;;4919048;29;20118;-90
2022/06/12 02:28:13;;;;;;;7.68;2.15;;;13.60;70.40;;;;;;4933781;29;20047;-90
2022/06/12 02:30:45;;;;;;;8.70;2.35;;;13.50;70.40;;;;;;4934160;29;20054;-90
2022/06/12 02:33:23;;;;;;;7.80;2.13;;;13.50;70.40;;;;;;4933834;29;20584;-91
2022/06/12 02:35:56;;;;;;;9.50;2.00;;;13.50;70.40;;;;;;4933832;29;20063;-89
2022/06/12 02:38:45;;;;;;;6.88;2.08;;;13.50;70.30;;;;;;4933775;29;20052;-91
2022/06/12 02:41:14;;;;;;;7.68;2.60;;;13.50;70.30;;;;;;4934317;29;20047;-90
2022/06/12 02:43:44;;;;;;;9.10;2.30;;;13.50;70.30;;;;;;4966266;28;20047;-90
2022/06/12 02:46:25;;;;;;;9.77;2.40;;;13.40;70.40;;;;;;4972528;28;20518;-92
2022/06/12 02:48:52;;;;;;;7.45;2.28;;;13.40;70.40;;;;;;4972554;28;20075;-91
2022/06/12 02:51:25;;;;;;;7.72;2.17;;;13.40;70.50;;;;;;4972972;28;20050;-92
2022/06/12 02:54:05;;;;;;;8.90;2.25;;;13.40;70.50;;;;;;5010726;28;20054;-92
2022/06/12 02:56:44;;;;;;;9.35;2.22;;;13.40;70.60;;;;;;5048279;28;20052;-90
2022/06/12 02:59:33;;;;;;;13.82;2.83;;;13.40;70.70;;;;;;5052217;28;20087;-92
2022/06/12 03:02:29;;;;;;;10.73;2.95;;;13.40;70.80;;;;;;4980357;28;20076;-91
2022/06/12 03:05:06;;;;;;;7.82;2.53;;;13.40;71.00;;;;;;4956472;28;20057;-90
2022/06/12 03:07:34;;;;;;;9.00;2.60;;;13.30;71.10;;;;;;4976101;28;20166;-93
2022/06/12 03:10:06;;;;;;;10.70;2.55;;;13.30;71.20;;;;;;4991934;28;20050;-93
2022/06/12 03:12:33;;;;;;;10.15;3.10;;;13.30;71.40;;;;;;4975984;28;20062;-91
2022/06/12 03:15:21;;;;;;;10.63;2.78;;;13.30;71.60;;;;;;4991695;28;20058;-91
2022/06/12 03:17:48;;;;;;;8.85;2.97;;;13.30;71.80;;;;;;4991365;28;20462;-91
2022/06/12 03:20:15;;;;;;;11.00;2.67;;;13.30;72.00;;;;;;4989088;28;20109;-91
2022/06/12 03:22:59;;;;;;;8.35;2.78;;;13.30;72.10;;;;;;4991026;28;20042;-90
2022/06/12 03:25:39;;;;;;;8.52;2.97;;;13.30;72.30;;;;;;4991354;28;20042;-90
2022/06/12 03:28:06;;;;;;;10.48;2.40;;;13.30;72.40;;;;;;4975360;28;20109;-91
2022/06/12 03:30:44;;;;;;;9.68;2.63;;;13.30;72.50;;;;;;4975583;28;20058;-90
2022/06/12 03:33:46;;;;;;;10.30;2.88;;;13.30;72.70;;;;;;4991135;28;20050;-90
2022/06/12 03:36:33;;;;;;;11.27;3.28;;;13.30;72.80;;;;;;4952549;29;20070;-90
2022/06/12 03:39:23;;;;;;;9.02;2.70;;;13.40;73.00;;;;;;4970394;28;20062;-90
2022/06/12 03:42:05;;;;;;;9.23;2.78;;;13.40;73.10;;;;;;4975688;28;20053;-90
2022/06/12 03:44:56;;;;;;;9.75;2.85;;;13.40;73.20;;;;;;4986996;28;20061;-90
2022/06/12 03:47:30;;;;;;;11.77;4.13;;;13.40;73.30;;;;;;4991273;28;20499;-90
2022/06/12 03:50:13;;;;;;;13.00;4.05;;;13.40;73.40;;;;;;4988210;28;20043;-91
2022/06/12 03:52:56;;;;;;;12.85;4.32;;;13.40;73.70;;;;;;4991416;28;20494;-89
2022/06/12 03:58:26;;;;;;;14.15;4.35;;;13.50;74.10;;;;;;4991306;28;20042;-91
2022/06/12 04:00:55;;;;;;;15.00;5.05;;;13.50;74.30;;;;;;4994540;28;20478;-91
2022/06/12 04:03:30;;;;;;;12.85;4.30;;;13.50;74.40;;;;;;4994532;28;20128;-92
2022/06/12 04:06:06;;;;;;;13.27;5.20;;;13.50;74.50;;;;;;4994688;28;20510;-92
2022/06/12 04:08:40;;;;;;;17.80;5.50;;;13.60;74.70;;;;;;4963937;28;20105;-91
2022/06/12 04:11:10;;;;;;;12.20;4.68;;;13.60;74.80;;;;;;4974049;28;20052;-90
2022/06/12 04:13:38;;;;;;;16.48;5.70;;;13.70;74.90;;;;;;5030044;28;20050;-90
2022/06/12 04:16:32;;;;;;;18.45;6.10;;;13.70;75.00;;;;;;5019836;28;20103;-91
2022/06/12 04:19:01;;;;;;;17.47;6.53;;;13.80;75.20;;;;;;5018839;28;20045;-91
2022/06/12 04:21:59;;;;;;;16.75;6.15;;;13.80;75.30;;;;;;5035675;28;20288;-91
2022/06/12 04:24:45;;;;;;;15.52;6.10;;;13.90;75.50;;;;;;5050340;28;20464;-90
2022/06/12 04:27:20;;;;;;;21.75;7.55;;;13.90;75.60;;;;;;5018540;28;20119;-91
2022/06/12 04:30:00;;;;;;;16.20;7.40;;;13.90;75.80;;;;;;5036164;28;20049;-90
2022/06/12 04:32:29;;;;;;;19.52;7.65;;;13.90;75.90;;;;;;5031114;28;20106;-89
2022/06/12 04:34:56;;;;;;;15.70;7.35;;;13.90;76.00;;;;;;5050956;28;20504;-90
2022/06/12 04:37:31;;;;;;;15.73;6.47;;;14.00;76.10;;;;;;5050756;28;20126;-90
2022/06/12 04:40:00;;;;;;;16.25;6.88;;;14.00;76.20;;;;;;5051133;28;20680;-90
2022/06/12 04:42:30;;;;;;;21.20;8.13;;;14.00;76.30;;;;;;5054404;28;20055;-90
2022/06/12 04:45:00;;;;;;;15.02;7.30;;;14.10;76.40;;;;;;5052068;28;20098;-89
2022/06/12 04:47:30;;;;;;;16.90;7.45;;;14.20;76.50;;;;;;5050455;28;20041;-90
2022/06/12 04:49:57;;;;;;;17.45;6.78;;;14.20;76.60;;;;;;5042451;28;20052;-90
2022/06/12 04:52:25;;;;;;;16.23;7.13;;;14.20;76.60;;;;;;5039815;28;20053;-90
2022/06/12 04:54:53;;;;;;;21.55;7.95;;;14.20;76.60;;;;;;5053465;28;20045;-90
2022/06/12 04:57:24;;;;;;;22.75;7.88;;;14.30;76.60;;;;;;5053238;28;20095;-92
2022/06/12 04:59:52;;;;;;;18.55;6.88;;;14.30;76.70;;;;;;5034844;28;20132;-90
2022/06/12 05:02:19;;;;;;;20.67;7.03;;;14.40;76.70;;;;;;5044609;28;20056;-91
2022/06/12 05:04:46;;;;;;;20.63;7.75;;;14.40;76.80;;;;;;5053573;28;20048;-90
2022/06/12 05:07:14;;;;;;;21.27;7.60;;;14.40;76.80;;;;;;5053712;28;20460;-90
2022/06/12 05:09:42;;;;;;;18.70;7.20;;;14.40;76.90;;;;;;5053845;28;20052;-90
2022/06/12 05:12:12;;;;;;;16.95;7.30;;;14.40;76.90;;;;;;5034733;28;20107;-90
2022/06/12 05:14:39;;;;;;;21.92;7.60;;;14.40;76.90;;;;;;5050257;28;20053;-91
2022/06/12 05:17:11;;;;;;;17.10;7.60;;;14.50;77.00;;;;;;5041886;28;20052;-90
2022/06/12 05:19:40;;;;;;;14.73;6.40;;;14.50;77.00;;;;;;5053524;28;20049;-90
2022/06/12 05:22:08;;;;;;;17.17;7.05;;;14.50;77.00;;;;;;5034550;28;20094;-89
2022/06/12 05:24:37;;;;;;;20.75;7.15;;;14.50;77.00;;;;;;5049915;28;20049;-89
2022/06/12 05:27:07;;;;;;;15.25;6.35;;;14.50;77.00;;;;;;5049569;28;20551;-89
2022/06/12 05:29:37;;;;;;;15.80;7.20;;;14.60;77.10;;;;;;5044596;28;20060;-89
2022/06/12 05:32:05;;;;;;;15.05;7.03;;;14.60;77.10;;;;;;5048912;28;20053;-89
2022/06/12 05:34:33;;;;;;;20.02;7.35;;;14.60;77.20;;;;;;5046323;28;20065;-91
2022/06/12 05:37:01;;;;;;;16.95;7.00;;;14.60;77.20;;;;;;5049386;28;20102;-91
2022/06/12 05:39:28;;;;;;;19.40;7.47;;;14.70;77.20;;;;;;5049583;28;20469;-89
2022/06/12 05:41:55;;;;;;;17.02;7.10;;;14.70;77.30;;;;;;5050865;28;20099;-90
2022/06/12 05:44:22;;;;;;;18.83;7.78;;;14.70;77.30;;;;;;5052723;28;20118;-89
2022/06/12 05:46:57;;;;;;;15.70;7.10;;;14.70;77.30;;;;;;5049967;28;20076;-90
2022/06/12 05:49:24;;;;;;;19.45;7.00;;;14.70;77.30;;;;;;5052312;28;20057;-90
2022/06/12 05:51:51;;;;;;;19.85;7.18;;;14.70;77.40;;;;;;5050510;28;20460;-89
2022/06/12 05:54:18;;;;;;;19.88;7.68;;;14.80;77.40;;;;;;5042444;28;20048;-90
2022/06/12 05:56:46;;;;;;;19.65;7.18;;;14.80;77.40;;;;;;5040272;28;20052;-89
2022/06/12 05:59:13;;;;;;;21.55;7.47;;;14.90;77.50;;;;;;5038597;28;20502;-89
2022/06/12 06:01:41;;;;;;;23.65;7.13;;;14.80;77.50;;;;;;5039664;28;20060;-89
2022/06/12 06:04:08;;;;;;;18.27;6.65;;;14.90;77.60;;;;;;5047958;28;20060;-89
2022/06/12 06:06:49;;;;;;;14.00;6.13;;;14.90;77.60;;;;;;5032095;28;20050;-89
2022/06/12 06:09:16;;;;;;;16.88;6.35;;;14.90;77.70;;;;;;5054558;28;20049;-88
2022/06/12 06:11:44;;;;;;;17.45;6.35;;;14.90;77.60;;;;;;5041412;28;20049;-89
2022/06/12 06:14:11;;;;;;;15.48;5.93;;;14.90;77.60;;;;;;5052522;28;20050;-88
2022/06/12 06:16:41;;;;;;;18.98;6.53;;;15.00;77.70;;;;;;5032784;28;20041;-87
2022/06/12 06:19:10;;;;;;;15.02;6.50;;;15.00;77.70;;;;;;5032006;28;20053;-90
2022/06/12 06:21:38;;;;;;;13.57;5.75;;;15.10;77.60;;;;;;5047433;28;20049;-89
2022/06/12 06:24:05;;;;;;;15.35;5.95;;;15.10;77.70;;;;;;5036419;28;20049;-89
2022/06/12 06:26:32;;;;;;;17.25;6.07;;;15.10;77.70;;;;;;5046256;28;20056;-89
2022/06/12 06:28:59;;;;;;;15.18;5.80;;;15.20;77.70;;;;;;5049794;28;20106;-89
2022/06/12 06:31:26;;;;;;;15.73;5.45;;;15.20;77.60;;;;;;5046652;28;20133;-88
2022/06/12 06:33:54;;;;;;;15.52;5.65;;;15.30;77.60;;;;;;5048087;28;20383;-89
2022/06/12 06:36:21;;;;;;;15.30;5.50;;;15.30;77.60;;;;;;5039061;28;20474;-90
2022/06/12 06:38:54;;;;;;;18.05;6.13;;;15.40;77.60;;;;;;5018639;28;20050;-89
2022/06/12 06:41:22;;;;;;;14.77;5.03;;;15.40;77.60;;;;;;5019420;28;20111;-89
2022/06/12 06:46:35;;;;;;;13.57;5.00;;;15.50;77.50;;;;;;5013149;28;20050;-92
2022/06/12 06:49:03;;;;;;;20.45;5.60;;;15.60;77.50;;;;;;5013240;28;20084;-93
2022/06/12 06:51:31;;;;;;;17.95;5.60;;;15.60;77.40;;;;;;5017410;28;20050;-93
2022/06/12 06:53:59;;;;;;;16.42;5.43;;;15.60;77.40;;;;;;5013087;28;20053;-91
2022/06/12 06:56:26;;;;;;;16.83;5.22;;;15.70;77.30;;;;;;5006497;28;20056;-91
2022/06/12 06:58:53;;;;;;;22.63;5.22;;;15.80;77.30;;;;;;5023110;28;20571;-90
2022/06/12 07:01:20;;;;;;;14.88;5.35;;;15.80;77.30;;;;;;5032478;28;20072;-90
2022/06/12 07:03:47;;;;;;;17.55;4.57;;;15.90;77.20;;;;;;5014499;28;20085;-89
2022/06/12 07:06:16;;;;;;;12.98;4.70;;;15.90;77.20;;;;;;5030034;28;20053;-90
2022/06/12 07:08:51;;;;;;;16.63;4.68;;;15.90;77.10;;;;;;5029296;28;20041;-92
2022/06/12 07:11:18;;;;;;;16.13;4.50;;;16.00;77.00;;;;;;5020849;28;20046;-92
2022/06/12 07:13:45;;;;;;;14.20;4.50;;;16.10;76.90;;;;;;5021483;28;20073;-93
2022/06/12 07:16:13;;;;;;;10.70;4.38;;;16.10;76.90;;;;;;5028650;28;20049;-90
2022/06/12 07:18:40;;;;;;;12.77;4.30;;;16.20;76.80;;;;;;5032831;28;20055;-91
2022/06/12 07:21:07;;;;;;;12.93;4.32;;;16.30;76.70;;;;;;5012989;28;20053;-90
2022/06/12 07:23:34;;;;;;;12.02;3.97;;;16.30;76.60;;;;;;5013403;28;20407;-90
2022/06/12 07:26:06;;;;;;;13.40;4.68;;;16.40;76.50;;;;;;5020403;28;20045;-90
2022/06/12 07:28:38;;;;;;;12.80;4.20;;;16.40;76.30;;;;;;5024883;28;20042;-93
2022/06/12 07:31:07;;;;;;;13.23;4.47;;;16.50;76.20;;;;;;5014595;28;20510;-91
2022/06/12 07:33:34;;;;;;;10.40;3.70;;;16.60;76.10;;;;;;5013879;28;20045;-92
2022/06/12 07:36:01;;;;;;;15.23;4.20;;;16.60;75.90;;;;;;5020108;28;20073;-91
2022/06/12 07:38:29;;;;;;;14.27;4.07;;;16.70;75.80;;;;;;5037538;28;20041;-91
2022/06/12 07:41:00;;;;;;;11.32;3.58;;;16.80;75.70;;;;;;5038187;28;20057;-91
2022/06/12 07:43:29;;;;;;;11.68;3.78;;;16.80;75.50;;;;;;5049297;28;20049;-92
2022/06/12 07:45:56;;;;;;;11.23;3.35;;;16.90;75.20;;;;;;5037319;28;20157;-92
2022/06/12 07:48:24;;;;;;;10.50;3.58;;;16.90;75.00;;;;;;5036639;28;20064;-91
2022/06/12 07:50:53;;;;;;;10.32;3.58;;;17.10;74.80;;;;;;5036811;28;20056;-91
2022/06/12 07:53:20;;;;;;;11.93;3.17;;;17.10;74.60;;;;;;5048241;28;20421;-91
2022/06/12 07:55:50;;;;;;;12.35;3.72;;;17.20;74.30;;;;;;5056352;28;20486;-91
2022/06/12 07:58:19;;;;;;;12.10;3.30;;;17.20;74.00;;;;;;5050144;28;20049;-91
2022/06/12 08:00:56;;;;;;;9.02;3.08;;;17.40;73.80;;;;;;5052677;28;20563;-91
2022/06/12 08:03:24;;;;;;;9.93;3.30;;;17.40;73.60;;;;;;5052191;28;20085;-92
2022/06/12 08:05:51;;;;;;;10.13;3.63;;;17.40;73.40;;;;;;5051058;28;20687;-91
2022/06/12 08:08:19;;;;;;;10.43;2.92;;;17.50;73.20;;;;;;5041560;28;20076;-92
2022/06/12 08:10:47;;;;;;;7.72;2.75;;;17.60;72.80;;;;;;5044798;28;20106;-90
2022/06/12 08:13:14;;;;;;;10.43;3.38;;;17.70;72.60;;;;;;5054851;28;20086;-91
2022/06/12 08:15:44;;;;;;;8.85;2.67;;;17.80;72.30;;;;;;5055068;28;20099;-91
2022/06/12 08:18:12;;;;;;;8.05;2.70;;;17.80;72.00;;;;;;5035768;28;20046;-92
2022/06/12 08:20:45;;;;;;;7.75;2.78;;;17.90;71.60;;;;;;5035789;28;20426;-93
2022/06/12 08:23:32;;;;;;;9.05;2.72;;;17.90;71.30;;;;;;5039966;28;20041;-92
2022/06/12 08:26:02;;;;;;;7.22;2.65;;;18.00;71.10;;;;;;5044189;28;20053;-94
2022/06/12 08:28:34;;;;;;;8.98;2.63;;;18.10;70.90;;;;;;5035648;28;20056;-92
2022/06/12 08:31:04;;;;;;;11.15;3.60;;;18.20;70.70;;;;;;5051536;28;20107;-92
2022/06/12 08:33:32;;;;;;;8.80;2.67;;;18.30;70.40;;;;;;5035846;28;20126;-92
2022/06/12 08:35:59;;;;;;;12.63;2.70;;;18.40;70.20;;;;;;5050734;28;20108;-92
2022/06/12 08:38:26;;;;;;;10.38;2.97;;;18.40;70.00;;;;;;5031689;28;20107;-95
2022/06/12 08:41:12;;;;;;;7.57;2.50;;;18.50;69.70;;;;;;5030291;28;20038;-95
2022/06/12 08:44:02;;;;;;;9.25;2.67;;;18.60;69.40;;;;;;5016876;28;20130;-92
2022/06/12 08:46:32;;;;;;;10.95;2.78;;;18.60;69.10;;;;;;5028813;28;20077;-92
2022/06/12 08:49:09;;;;;;;11.75;2.40;;;18.80;68.90;;;;;;5020122;28;20095;-95
2022/06/12 08:51:59;;;;;;;8.30;2.65;;;18.90;68.60;;;;;;5036124;28;20053;-92
2022/06/12 08:54:51;;;;;;;7.70;2.55;;;18.90;68.20;;;;;;4998616;28;20050;-94
2022/06/12 08:57:33;;;;;;;9.80;2.83;;;19.00;67.90;;;;;;5015722;28;20069;-91
2022/06/12 09:00:15;;;;;;;10.45;2.63;;;19.10;67.60;;;;;;5018481;28;20050;-92
2022/06/12 09:02:44;;;;;;;10.18;2.72;;;19.20;67.40;;;;;;5024560;28;20129;-92
2022/06/12 09:05:15;;;;;;;7.78;2.42;;;19.30;67.10;;;;;;5022784;28;20057;-93
2022/06/12 09:07:56;;;;;;;8.13;2.53;;;19.30;66.80;;;;;;5019953;28;20045;-92
2022/06/12 09:10:39;;;;;;;6.25;2.40;;;19.40;66.40;;;;;;5032591;28;20049;-92
2022/06/12 09:13:15;;;;;;;8.48;2.58;;;19.50;66.20;;;;;;5031247;28;20046;-91
2022/06/12 09:16:00;;;;;;;9.60;2.60;;;19.60;66.10;;;;;;5014980;28;20391;-89
2022/06/12 09:18:39;;;;;;;9.55;2.42;;;19.70;65.90;;;;;;5034203;28;20477;-94
2022/06/12 09:21:17;;;;;;;6.75;2.30;;;19.80;65.70;;;;;;5033697;28;20084;-91
2022/06/12 09:23:50;;;;;;;6.47;2.17;;;19.90;65.50;;;;;;5016163;28;20113;-92
2022/06/12 09:26:29;;;;;;;8.13;2.50;;;20.00;65.30;;;;;;5020885;28;20061;-90
2022/06/12 09:29:24;;;;;;;7.65;2.50;;;20.00;65.20;;;;;;5029207;28;20050;-90
2022/06/12 09:32:18;;;;;;;7.55;2.17;;;20.20;65.00;;;;;;5015739;28;20045;-90
2022/06/12 09:35:13;;;;;;;8.18;2.50;;;20.30;64.70;;;;;;5031812;28;20136;-90
2022/06/12 09:40:43;;;;;;;9.75;2.25;;;20.40;64.20;;;;;;5027199;28;20354;-90
2022/06/12 09:43:40;;;;;;;9.43;2.53;;;20.50;64.10;;;;;;5014011;28;20042;-92
2022/06/12 09:46:53;;;;;;;10.07;2.55;;;20.50;63.90;;;;;;5015932;28;20643;-90
2022/06/12 09:49:29;;;;;;;7.80;2.45;;;20.60;63.70;;;;;;5029501;28;20449;-91
2022/06/12 09:52:29;;;;;;;14.88;2.65;;;20.70;63.60;;;;;;5015688;28;20111;-92
2022/06/12 09:54:56;;;;;;;8.63;2.40;;;20.80;63.40;;;;;;5014811;28;20132;-89
2022/06/12 09:57:49;;;;;;;9.65;2.42;;;20.90;63.20;;;;;;5016927;28;20092;-90
2022/06/12 10:00:23;;;;;;;8.57;2.95;;;20.90;62.90;;;;;;5015789;28;20050;-91
2022/06/12 10:03:11;;;;;;;11.20;2.90;;;21.00;62.70;;;;;;5021795;28;20502;-91
2022/06/12 10:05:51;;;;;;;9.88;2.58;;;21.10;62.50;;;;;;5021759;28;20115;-92
2022/06/12 10:08:32;;;;;;;7.20;2.08;;;21.10;62.40;;;;;;5023592;28;20053;-90
2022/06/12 10:11:16;;;;;;;8.27;2.25;;;21.20;62.10;;;;;;5017930;28;20462;-90
2022/06/12 10:14:20;;;;;;;7.40;2.55;;;21.30;61.90;;;;;;5014779;28;20054;-90
2022/06/12 10:17:02;;;;;;;6.80;2.40;;;21.30;61.90;;;;;;5026976;28;20719;-90
2022/06/12 10:19:45;;;;;;;6.18;2.00;;;21.40;61.80;;;;;;5029237;28;20099;-91
2022/06/12 10:22:18;;;;;;;9.45;2.78;;;21.40;61.70;;;;;;5014328;28;20096;-90
2022/06/12 10:24:52;;;;;;;11.07;2.35;;;21.40;61.60;;;;;;5032687;28;20049;-90
2022/06/12 10:27:20;;;;;;;7.63;2.08;;;21.50;61.50;;;;;;4995846;28;20053;-92
2022/06/12 10:29:54;;;;;;;6.28;1.83;;;21.60;61.40;;;;;;5014332;28;20054;-90
2022/06/12 10:32:26;;;;;;;7.53;2.58;;;21.60;61.30;;;;;;5024497;28;20049;-91
2022/06/12 10:34:56;;;;;;;6.75;2.08;;;21.70;61.10;;;;;;5024989;28;20108;-90
2022/06/12 10:37:28;;;;;;;8.57;3.13;;;21.80;60.90;;;;;;5030680;28;20053;-90
2022/06/12 10:40:04;;;;;;;6.80;2.30;;;21.80;60.70;;;;;;5031180;28;20129;-90
2022/06/12 10:42:34;;;;;;;7.35;2.30;;;21.90;60.60;;;;;;4996590;28;20054;-92
2022/06/12 10:45:01;;;;;;;7.07;2.35;;;21.90;60.50;;;;;;5013478;28;20557;-89
2022/06/12 10:47:31;;;;;;;7.95;2.40;;;21.90;60.40;;;;;;5023094;28;20509;-93
2022/06/12 10:50:14;;;;;;;7.93;2.40;;;22.00;60.30;;;;;;5009281;28;20421;-92
2022/06/12 10:53:00;;;;;;;7.85;2.53;;;22.10;60.20;;;;;;5014131;28;20446;-93
2022/06/12 10:55:44;;;;;;;8.07;2.20;;;22.10;60.10;;;;;;5029775;28;20050;-92
2022/06/12 10:58:29;;;;;;;;;;;22.20;60.00;;;;;;5036912;28;20052;-95
2022/06/12 11:01:03;;;;;;;8.50;2.33;;;22.30;59.80;;;;;;5017524;28;19936;-92
2022/06/12 11:03:42;;;;;;;7.28;2.45;;;22.30;59.60;;;;;;5016098;28;20441;-94
2022/06/12 11:06:34;;;;;;;8.40;2.58;;;22.30;59.40;;;;;;4997185;28;20066;-93
2022/06/12 11:09:15;;;;;;;6.10;2.35;;;22.20;59.40;;;;;;5019311;28;20107;-92
2022/06/12 11:12:07;;;;;;;9.07;2.78;;;22.30;59.40;;;;;;5019727;28;20065;-93
2022/06/12 11:15:02;;;;;;;7.28;2.20;;;22.30;59.40;;;;;;5016245;28;20462;-93
2022/06/12 11:18:01;;;;;;;8.48;2.45;;;22.30;59.30;;;;;;5016261;28;20045;-92
2022/06/12 11:20:39;;;;;;;13.27;2.90;;;22.30;59.30;;;;;;5018864;28;20057;-93
2022/06/12 11:23:24;;;;;;;6.78;2.05;;;22.30;59.30;;;;;;5016222;28;20116;-93
2022/06/12 11:26:16;;;;;;;9.00;2.33;;;22.40;59.20;;;;;;5012323;28;20053;-92
2022/06/12 11:29:13;;;;;;;6.97;2.28;;;22.40;59.10;;;;;;5019771;28;20049;-94
2022/06/12 11:32:11;;;;;;;8.48;2.65;;;22.40;59.00;;;;;;5030935;28;20406;-92
2022/06/12 11:35:05;;;;;;;8.27;2.50;;;22.40;58.90;;;;;;5015522;28;20466;-93
2022/06/12 11:38:11;;;;;;;8.73;2.72;;;22.50;58.80;;;;;;5024110;28;20061;-94
2022/06/12 11:40:41;;;;;;;7.15;2.40;;;22.60;58.70;;;;;;4998967;28;20054;-94
2022/06/12 11:43:21;;;;;;;10.15;2.58;;;22.60;58.60;;;;;;5000459;28;20061;-93
2022/06/12 11:46:14;;;;;;;7.50;2.40;;;22.60;58.50;;;;;;5015899;28;20050;-95
2022/06/12 11:49:18;;;;;;;8.70;2.92;;;22.70;58.30;;;;;;5016230;28;20080;-93
2022/06/12 11:51:58;;;;;;;7.47;2.17;;;22.80;58.10;;;;;;4999491;28;20058;-93
2022/06/12 11:54:27;;;;;;;8.80;2.00;;;22.90;58.00;;;;;;5019573;28;20053;-93
2022/06/12 11:57:16;;;;;;;9.40;2.30;;;22.90;57.80;;;;;;5020590;28;20053;-95
2022/06/12 11:59:52;;;;;;;7.18;2.42;;;23.10;57.60;;;;;;5019916;28;20057;-94
2022/06/12 12:02:31;;;;;;;6.35;2.08;;;23.10;57.50;;;;;;5019247;28;20057;-93
2022/06/12 12:05:04;;;;;;;7.85;2.13;;;23.20;57.40;;;;;;5016821;28;20066;-93
2022/06/12 12:08:11;;;;;;;5.13;2.00;;;23.30;57.20;;;;;;5024216;28;20053;-94
2022/06/12 12:11:06;;;;;;;6.30;2.15;;;23.40;57.00;;;;;;5036366;28;20490;-94
2022/06/12 12:13:52;;;;;;;7.10;2.45;;;23.50;56.80;;;;;;5018474;28;20510;-92
2022/06/12 12:16:30;;;;;;;7.85;2.30;;;23.60;56.60;;;;;;5018832;28;20045;-93
2022/06/12 12:19:06;;;;;;;9.07;2.33;;;23.60;56.50;;;;;;5035825;28;20068;-93
2022/06/12 12:21:42;;;;;;;6.82;2.08;;;23.70;56.30;;;;;;5036301;28;20045;-91
2022/06/12 12:24:17;;;;;;;5.80;2.38;;;23.80;56.20;;;;;;4998751;28;20058;-91
2022/06/12 12:26:45;;;;;;;8.20;2.22;;;23.80;56.10;;;;;;5024065;28;20584;-92
2022/06/12 12:29:24;;;;;;;8.93;2.28;;;23.90;55.90;;;;;;5002188;28;20050;-94
2022/06/12 12:31:52;;;;;;;7.22;2.08;;;23.90;55.70;;;;;;5017641;28;20054;-94
2022/06/12 12:34:23;;;;;;;8.20;2.10;;;23.90;55.60;;;;;;5021793;28;20473;-92
2022/06/12 12:42:32;;;;;;;7.97;2.17;;;24.10;55.20;;;;;;5049942;28;20048;-93
2022/06/12 12:45:24;;;;;;;6.95;2.03;;;24.10;55.10;;;;;;5054456;28;20110;-93
2022/06/12 12:48:00;;;;;;;6.35;1.95;;;24.10;55.00;;;;;;5036008;28;20049;-93
2022/06/12 12:50:28;;;;;;;6.30;1.75;;;24.10;54.90;;;;;;5035527;28;20099;-92
2022/06/12 12:52:57;;;;;;;7.25;1.80;;;24.10;54.80;;;;;;5052123;28;20049;-93
2022/06/12 12:55:32;;;;;;;7.22;2.13;;;24.10;54.70;;;;;;5048389;28;20076;-93
2022/06/12 12:58:13;;;;;;;5.65;1.60;;;24.20;54.50;;;;;;5038338;28;20413;-94
2022/06/12 13:00:42;;;;;;;5.95;1.83;;;24.20;54.30;;;;;;5038496;28;20050;-93
2022/06/12 13:03:28;;;;;;;7.10;2.20;;;24.20;54.20;;;;;;5054391;28;20077;-90
2022/06/12 13:06:07;;;;;;;7.47;2.20;;;24.30;54.10;;;;;;5035919;28;20449;-93
2022/06/12 13:09:20;;;;;;;6.35;1.55;;;24.30;54.00;;;;;;5034601;28;20105;-91
2022/06/12 13:11:50;;;;;;;8.43;1.83;;;24.30;53.80;;;;;;5034496;28;20049;-93
2022/06/12 13:14:26;;;;;;;5.45;1.80;;;24.30;53.70;;;;;;5047366;28;20053;-92
2022/06/12 13:17:30;;;;;;;6.28;2.03;;;24.40;53.60;;;;;;5053643;28;20067;-91
2022/06/12 13:20:29;;;;;;;6.22;1.50;;;24.40;53.50;;;;;;5054678;28;20071;-92
2022/06/12 13:23:26;;;;;;;5.43;1.60;;;24.40;53.30;;;;;;5043032;28;20132;-94
2022/06/12 13:25:54;;;;;;;;;;;24.40;53.20;;;;;;5035369;28;20099;-93
2022/06/12 13:28:30;;;;;;;6.15;1.75;;;24.50;53.10;;;;;;5033912;28;20320;-93
2022/06/12 13:30:58;;;;;;;6.20;1.73;;;24.50;52.90;;;;;;5035639;28;20067;-92
2022/06/12 13:33:33;;;;;;;5.57;1.55;;;24.50;52.60;;;;;;5053257;28;20060;-95
2022/06/12 13:36:06;;;;;;;7.05;2.13;;;24.50;52.50;;;;;;5035528;28;20049;-93
2022/06/12 13:39:01;;;;;;;5.70;1.98;;;24.50;52.40;;;;;;5012394;28;20054;-94
2022/06/12 13:41:44;;;;;;;9.30;2.75;;;24.60;52.40;;;;;;5025006;28;20046;-93
2022/06/12 13:44:35;;;;;;;4.78;1.60;;;24.60;52.30;;;;;;5016403;28;20107;-91
2022/06/12 13:47:33;;;;;;;5.55;1.75;;;24.60;52.30;;;;;;5024081;28;20108;-91
2022/06/12 13:50:28;;;;;;;6.20;2.00;;;24.60;52.20;;;;;;5014439;28;20069;-92